sensor_id;sensor_type;location;lat;lon;timestamp;P1;durP1;ratioP1;P2;durP2;ratioP2
36373;SDS011;22399;51.346;12.372;2024-02-15T00:01:42;5.95;;;2.47;;
36373;SDS011;22399;51.346;12.372;2024-02-15T00:04:10;4.00;;;1.83;;
36373;SDS011;22399;51.346;12.372;2024-02-15T00:06:40;5.65;;;2.20;;
36373;SDS011;22399;51.346;12.372;2024-02-15T00:09:09;4.30;;;2.33;;
36373;SDS011;22399;51.346;12.372;2024-02-15T00:11:37;5.47;;;1.92;;
36373;SDS011;22399;51.346;12.372;2024-02-15T00:14:07;4.57;;;2.35;;
36373;SDS011;22399;51.346;12.372;2024-02-15T00:16:35;6.78;;;2.00;;
36373;SDS011;22399;51.346;12.372;2024-02-15T00:19:04;3.42;;;1.65;;
36373;SDS011;22399;51.346;12.372;2024-02-15T00:21:34;5.22;;;2.40;;
36373;SDS011;22399;51.346;12.372;2024-02-15T00:24:04;3.67;;;1.95;;
36373;SDS011;22399;51.346;12.372;2024-02-15T00:26:34;6.45;;;2.53;;
36373;SDS011;22399;51.346;12.372;2024-02-15T00:29:03;2.67;;;1.55;;
36373;SDS011;22399;51.346;12.372;2024-02-15T00:31:31;6.63;;;1.95;;
36373;SDS011;22399;51.346;12.372;2024-02-15T00:34:00;2.67;;;1.63;;
36373;SDS011;22399;51.346;12.372;2024-02-15T00:36:30;8.30;;;2.03;;
36373;SDS011;22399;51.346;12.372;2024-02-15T00:38:58;1.98;;;1.15;;
36373;SDS011;22399;51.346;12.372;2024-02-15T00:41:28;3.50;;;1.77;;
36373;SDS011;22399;51.346;12.372;2024-02-15T00:43:57;2.88;;;1.75;;
36373;SDS011;22399;51.346;12.372;2024-02-15T00:46:25;1.85;;;1.33;;
36373;SDS011;22399;51.346;12.372;2024-02-15T00:48:56;2.75;;;1.52;;
36373;SDS011;22399;51.346;12.372;2024-02-15T00:51:25;10.82;;;1.92;;
36373;SDS011;22399;51.346;12.372;2024-02-15T00:53:53;4.38;;;1.33;;
36373;SDS011;22399;51.346;12.372;2024-02-15T00:56:22;3.20;;;1.35;;
36373;SDS011;22399;51.346;12.372;2024-02-15T00:58:52;12.90;;;2.53;;
36373;SDS011;22399;51.346;12.372;2024-02-15T01:01:21;4.75;;;1.70;;
36373;SDS011;22399;51.346;12.372;2024-02-15T01:03:50;5.22;;;2.03;;
36373;SDS011;22399;51.346;12.372;2024-02-15T01:06:17;3.10;;;1.42;;
36373;SDS011;22399;51.346;12.372;2024-02-15T01:08:46;2.50;;;1.13;;
36373;SDS011;22399;51.346;12.372;2024-02-15T01:11:15;3.65;;;1.80;;
36373;SDS011;22399;51.346;12.372;2024-02-15T01:13:43;2.97;;;1.45;;
36373;SDS011;22399;51.346;12.372;2024-02-15T01:16:13;3.40;;;1.95;;
36373;SDS011;22399;51.346;12.372;2024-02-15T01:18:42;3.42;;;1.30;;
36373;SDS011;22399;51.346;12.372;2024-02-15T01:21:10;5.75;;;1.33;;
36373;SDS011;22399;51.346;12.372;2024-02-15T01:23:39;4.15;;;2.03;;
36373;SDS011;22399;51.346;12.372;2024-02-15T01:26:08;3.70;;;1.40;;
36373;SDS011;22399;51.346;12.372;2024-02-15T01:28:36;2.63;;;1.55;;
36373;SDS011;22399;51.346;12.372;2024-02-15T01:31:04;2.28;;;1.67;;
36373;SDS011;22399;51.346;12.372;2024-02-15T01:33:35;9.00;;;1.50;;
36373;SDS011;22399;51.346;12.372;2024-02-15T01:36:03;2.88;;;1.15;;
36373;SDS011;22399;51.346;12.372;2024-02-15T01:38:33;2.88;;;1.50;;
36373;SDS011;22399;51.346;12.372;2024-02-15T01:41:01;2.90;;;1.27;;
36373;SDS011;22399;51.346;12.372;2024-02-15T01:43:30;2.25;;;1.00;;
36373;SDS011;22399;51.346;12.372;2024-02-15T01:45:59;3.67;;;1.58;;
36373;SDS011;22399;51.346;12.372;2024-02-15T01:48:30;1.73;;;0.88;;
36373;SDS011;22399;51.346;12.372;2024-02-15T01:51:00;1.52;;;1.10;;
36373;SDS011;22399;51.346;12.372;2024-02-15T01:53:30;2.95;;;1.33;;
36373;SDS011;22399;51.346;12.372;2024-02-15T01:55:59;3.97;;;1.35;;
36373;SDS011;22399;51.346;12.372;2024-02-15T01:58:28;5.57;;;1.20;;
36373;SDS011;22399;51.346;12.372;2024-02-15T02:00:59;3.17;;;1.33;;
36373;SDS011;22399;51.346;12.372;2024-02-15T02:03:28;4.15;;;1.15;;
36373;SDS011;22399;51.346;12.372;2024-02-15T02:05:59;3.00;;;1.27;;
36373;SDS011;22399;51.346;12.372;2024-02-15T02:08:29;1.75;;;1.10;;
36373;SDS011;22399;51.346;12.372;2024-02-15T02:10:58;2.00;;;1.10;;
36373;SDS011;22399;51.346;12.372;2024-02-15T02:13:28;3.13;;;1.30;;
36373;SDS011;22399;51.346;12.372;2024-02-15T02:15:57;1.52;;;1.08;;
36373;SDS011;22399;51.346;12.372;2024-02-15T02:18:26;1.33;;;0.93;;
36373;SDS011;22399;51.346;12.372;2024-02-15T02:20:54;1.40;;;0.93;;
36373;SDS011;22399;51.346;12.372;2024-02-15T02:23:25;6.63;;;1.13;;
36373;SDS011;22399;51.346;12.372;2024-02-15T02:25:55;1.10;;;0.90;;
36373;SDS011;22399;51.346;12.372;2024-02-15T02:28:24;2.40;;;1.00;;
36373;SDS011;22399;51.346;12.372;2024-02-15T02:30:54;3.88;;;0.85;;
36373;SDS011;22399;51.346;12.372;2024-02-15T02:33:23;2.50;;;0.95;;
36373;SDS011;22399;51.346;12.372;2024-02-15T02:35:55;2.67;;;1.13;;
36373;SDS011;22399;51.346;12.372;2024-02-15T02:38:24;2.20;;;0.88;;
36373;SDS011;22399;51.346;12.372;2024-02-15T02:40:52;1.38;;;0.90;;
36373;SDS011;22399;51.346;12.372;2024-02-15T02:43:22;2.17;;;0.63;;
36373;SDS011;22399;51.346;12.372;2024-02-15T02:45:50;2.08;;;0.73;;
36373;SDS011;22399;51.346;12.372;2024-02-15T02:48:19;1.55;;;0.73;;
36373;SDS011;22399;51.346;12.372;2024-02-15T02:50:47;1.25;;;0.80;;
36373;SDS011;22399;51.346;12.372;2024-02-15T02:53:16;9.68;;;1.00;;
36373;SDS011;22399;51.346;12.372;2024-02-15T02:55:44;1.38;;;0.85;;
36373;SDS011;22399;51.346;12.372;2024-02-15T02:58:13;1.38;;;0.73;;
36373;SDS011;22399;51.346;12.372;2024-02-15T03:00:43;1.42;;;1.00;;
36373;SDS011;22399;51.346;12.372;2024-02-15T03:03:13;2.33;;;1.30;;
36373;SDS011;22399;51.346;12.372;2024-02-15T03:05:41;0.85;;;0.80;;
36373;SDS011;22399;51.346;12.372;2024-02-15T03:08:10;6.13;;;0.77;;
36373;SDS011;22399;51.346;12.372;2024-02-15T03:10:39;1.38;;;0.90;;
36373;SDS011;22399;51.346;12.372;2024-02-15T03:13:07;1.27;;;0.80;;
36373;SDS011;22399;51.346;12.372;2024-02-15T03:15:35;5.80;;;1.23;;
36373;SDS011;22399;51.346;12.372;2024-02-15T03:18:05;3.30;;;0.90;;
36373;SDS011;22399;51.346;12.372;2024-02-15T03:20:36;1.33;;;0.77;;
36373;SDS011;22399;51.346;12.372;2024-02-15T03:23:05;2.25;;;0.98;;
36373;SDS011;22399;51.346;12.372;2024-02-15T03:25:33;0.93;;;0.52;;
36373;SDS011;22399;51.346;12.372;2024-02-15T03:28:02;2.13;;;0.98;;
36373;SDS011;22399;51.346;12.372;2024-02-15T03:30:31;2.67;;;0.82;;
36373;SDS011;22399;51.346;12.372;2024-02-15T03:33:01;1.85;;;0.82;;
36373;SDS011;22399;51.346;12.372;2024-02-15T03:35:34;1.80;;;0.98;;
36373;SDS011;22399;51.346;12.372;2024-02-15T03:38:03;7.30;;;1.20;;
36373;SDS011;22399;51.346;12.372;2024-02-15T03:40:31;4.05;;;0.77;;
36373;SDS011;22399;51.346;12.372;2024-02-15T03:43:00;1.60;;;0.82;;
36373;SDS011;22399;51.346;12.372;2024-02-15T03:45:33;1.52;;;0.90;;
36373;SDS011;22399;51.346;12.372;2024-02-15T03:48:01;0.95;;;0.68;;
36373;SDS011;22399;51.346;12.372;2024-02-15T03:50:33;0.82;;;0.70;;
36373;SDS011;22399;51.346;12.372;2024-02-15T03:53:02;5.75;;;0.80;;
36373;SDS011;22399;51.346;12.372;2024-02-15T03:55:32;2.40;;;0.90;;
36373;SDS011;22399;51.346;12.372;2024-02-15T03:58:02;1.08;;;0.57;;
36373;SDS011;22399;51.346;12.372;2024-02-15T04:00:30;1.20;;;1.02;;
36373;SDS011;22399;51.346;12.372;2024-02-15T04:02:58;0.60;;;0.60;;
36373;SDS011;22399;51.346;12.372;2024-02-15T04:05:28;2.08;;;0.85;;
36373;SDS011;22399;51.346;12.372;2024-02-15T04:07:57;1.40;;;0.70;;
36373;SDS011;22399;51.346;12.372;2024-02-15T04:10:28;6.15;;;0.50;;
36373;SDS011;22399;51.346;12.372;2024-02-15T04:12:57;1.63;;;0.88;;
36373;SDS011;22399;51.346;12.372;2024-02-15T04:15:25;2.00;;;0.82;;
36373;SDS011;22399;51.346;12.372;2024-02-15T04:17:54;1.80;;;0.50;;
36373;SDS011;22399;51.346;12.372;2024-02-15T04:20:24;1.27;;;0.98;;
36373;SDS011;22399;51.346;12.372;2024-02-15T04:22:53;1.02;;;0.93;;
36373;SDS011;22399;51.346;12.372;2024-02-15T04:25:24;1.35;;;1.00;;
36373;SDS011;22399;51.346;12.372;2024-02-15T04:27:54;2.55;;;0.98;;
36373;SDS011;22399;51.346;12.372;2024-02-15T04:30:24;1.15;;;0.85;;
36373;SDS011;22399;51.346;12.372;2024-02-15T04:32:52;0.63;;;0.52;;
36373;SDS011;22399;51.346;12.372;2024-02-15T04:35:21;4.05;;;0.57;;
36373;SDS011;22399;51.346;12.372;2024-02-15T04:37:50;0.95;;;0.60;;
36373;SDS011;22399;51.346;12.372;2024-02-15T04:40:19;0.77;;;0.52;;
36373;SDS011;22399;51.346;12.372;2024-02-15T04:42:49;1.20;;;0.43;;
36373;SDS011;22399;51.346;12.372;2024-02-15T04:45:19;0.73;;;0.47;;
36373;SDS011;22399;51.346;12.372;2024-02-15T04:47:48;0.75;;;0.47;;
36373;SDS011;22399;51.346;12.372;2024-02-15T04:50:19;0.88;;;0.30;;
36373;SDS011;22399;51.346;12.372;2024-02-15T04:52:48;1.50;;;0.60;;
36373;SDS011;22399;51.346;12.372;2024-02-15T04:55:17;1.30;;;0.45;;
36373;SDS011;22399;51.346;12.372;2024-02-15T04:57:46;1.60;;;0.80;;
36373;SDS011;22399;51.346;12.372;2024-02-15T05:00:17;0.70;;;0.50;;
36373;SDS011;22399;51.346;12.372;2024-02-15T05:02:48;0.63;;;0.40;;
36373;SDS011;22399;51.346;12.372;2024-02-15T05:05:17;1.52;;;0.77;;
36373;SDS011;22399;51.346;12.372;2024-02-15T05:07:45;0.82;;;0.40;;
36373;SDS011;22399;51.346;12.372;2024-02-15T05:10:15;0.57;;;0.32;;
36373;SDS011;22399;51.346;12.372;2024-02-15T05:12:44;0.85;;;0.38;;
36373;SDS011;22399;51.346;12.372;2024-02-15T05:15:15;1.65;;;0.85;;
36373;SDS011;22399;51.346;12.372;2024-02-15T05:17:46;1.20;;;1.00;;
36373;SDS011;22399;51.346;12.372;2024-02-15T05:20:15;0.57;;;0.30;;
36373;SDS011;22399;51.346;12.372;2024-02-15T05:22:43;0.90;;;0.50;;
36373;SDS011;22399;51.346;12.372;2024-02-15T05:25:16;1.67;;;0.63;;
36373;SDS011;22399;51.346;12.372;2024-02-15T05:27:51;0.50;;;0.50;;
36373;SDS011;22399;51.346;12.372;2024-02-15T05:30:23;0.77;;;0.60;;
36373;SDS011;22399;51.346;12.372;2024-02-15T05:32:54;1.48;;;0.68;;
36373;SDS011;22399;51.346;12.372;2024-02-15T05:35:23;2.00;;;0.75;;
36373;SDS011;22399;51.346;12.372;2024-02-15T05:37:53;1.15;;;0.75;;
36373;SDS011;22399;51.346;12.372;2024-02-15T05:40:22;0.57;;;0.57;;
36373;SDS011;22399;51.346;12.372;2024-02-15T05:42:54;1.17;;;0.70;;
36373;SDS011;22399;51.346;12.372;2024-02-15T05:45:28;8.63;;;0.75;;
36373;SDS011;22399;51.346;12.372;2024-02-15T05:48:03;1.05;;;0.70;;
36373;SDS011;22399;51.346;12.372;2024-02-15T05:50:34;2.72;;;0.57;;
36373;SDS011;22399;51.346;12.372;2024-02-15T05:53:03;4.53;;;0.85;;
36373;SDS011;22399;51.346;12.372;2024-02-15T05:55:31;2.95;;;0.80;;
36373;SDS011;22399;51.346;12.372;2024-02-15T05:58:02;3.00;;;1.30;;
36373;SDS011;22399;51.346;12.372;2024-02-15T06:00:30;1.98;;;0.80;;
36373;SDS011;22399;51.346;12.372;2024-02-15T06:03:02;1.05;;;0.60;;
36373;SDS011;22399;51.346;12.372;2024-02-15T06:05:32;2.40;;;0.98;;
36373;SDS011;22399;51.346;12.372;2024-02-15T06:08:01;3.13;;;1.02;;
36373;SDS011;22399;51.346;12.372;2024-02-15T06:10:29;7.38;;;0.95;;
36373;SDS011;22399;51.346;12.372;2024-02-15T06:12:58;4.80;;;0.73;;
36373;SDS011;22399;51.346;12.372;2024-02-15T06:15:26;1.55;;;0.85;;
36373;SDS011;22399;51.346;12.372;2024-02-15T06:17:55;2.47;;;0.90;;
36373;SDS011;22399;51.346;12.372;2024-02-15T06:20:25;1.17;;;0.57;;
36373;SDS011;22399;51.346;12.372;2024-02-15T06:22:56;2.30;;;0.68;;
36373;SDS011;22399;51.346;12.372;2024-02-15T06:25:25;1.15;;;0.77;;
36373;SDS011;22399;51.346;12.372;2024-02-15T06:27:53;0.85;;;0.70;;
36373;SDS011;22399;51.346;12.372;2024-02-15T06:30:28;2.13;;;1.20;;
36373;SDS011;22399;51.346;12.372;2024-02-15T06:33:14;1.95;;;0.98;;
36373;SDS011;22399;51.346;12.372;2024-02-15T06:36:05;2.45;;;0.85;;
36373;SDS011;22399;51.346;12.372;2024-02-15T06:38:51;1.58;;;0.82;;
36373;SDS011;22399;51.346;12.372;2024-02-15T06:44:05;5.75;;;0.90;;
36373;SDS011;22399;51.346;12.372;2024-02-15T06:46:34;1.48;;;0.70;;
36373;SDS011;22399;51.346;12.372;2024-02-15T06:49:02;2.33;;;0.80;;
36373;SDS011;22399;51.346;12.372;2024-02-15T06:51:33;2.28;;;1.02;;
36373;SDS011;22399;51.346;12.372;2024-02-15T06:54:02;3.10;;;1.10;;
36373;SDS011;22399;51.346;12.372;2024-02-15T06:56:31;2.97;;;1.15;;
36373;SDS011;22399;51.346;12.372;2024-02-15T06:59:04;4.22;;;1.10;;
36373;SDS011;22399;51.346;12.372;2024-02-15T07:01:32;2.53;;;1.15;;
36373;SDS011;22399;51.346;12.372;2024-02-15T07:04:01;1.77;;;0.68;;
36373;SDS011;22399;51.346;12.372;2024-02-15T07:06:30;2.05;;;0.77;;
36373;SDS011;22399;51.346;12.372;2024-02-15T07:09:00;2.15;;;1.00;;
36373;SDS011;22399;51.346;12.372;2024-02-15T07:11:31;2.53;;;1.05;;
36373;SDS011;22399;51.346;12.372;2024-02-15T07:14:00;4.10;;;1.45;;
36373;SDS011;22399;51.346;12.372;2024-02-15T07:16:29;2.25;;;0.80;;
36373;SDS011;22399;51.346;12.372;2024-02-15T07:18:57;1.77;;;0.70;;
36373;SDS011;22399;51.346;12.372;2024-02-15T07:21:26;4.15;;;0.88;;
36373;SDS011;22399;51.346;12.372;2024-02-15T07:23:55;1.30;;;0.82;;
36373;SDS011;22399;51.346;12.372;2024-02-15T07:26:25;1.23;;;0.82;;
36373;SDS011;22399;51.346;12.372;2024-02-15T07:28:54;4.38;;;1.10;;
36373;SDS011;22399;51.346;12.372;2024-02-15T07:31:27;1.30;;;0.70;;
36373;SDS011;22399;51.346;12.372;2024-02-15T07:33:56;1.33;;;0.93;;
36373;SDS011;22399;51.346;12.372;2024-02-15T07:36:25;2.67;;;1.02;;
36373;SDS011;22399;51.346;12.372;2024-02-15T07:38:54;3.42;;;0.85;;
36373;SDS011;22399;51.346;12.372;2024-02-15T07:41:30;8.57;;;1.10;;
36373;SDS011;22399;51.346;12.372;2024-02-15T07:44:00;1.80;;;1.00;;
36373;SDS011;22399;51.346;12.372;2024-02-15T07:46:29;2.60;;;1.10;;
36373;SDS011;22399;51.346;12.372;2024-02-15T07:48:57;3.85;;;1.50;;
36373;SDS011;22399;51.346;12.372;2024-02-15T07:51:26;2.40;;;1.15;;
36373;SDS011;22399;51.346;12.372;2024-02-15T07:53:54;3.60;;;1.20;;
36373;SDS011;22399;51.346;12.372;2024-02-15T07:56:23;3.95;;;1.63;;
36373;SDS011;22399;51.346;12.372;2024-02-15T07:58:53;2.63;;;1.20;;
36373;SDS011;22399;51.346;12.372;2024-02-15T08:01:22;2.13;;;1.20;;
36373;SDS011;22399;51.346;12.372;2024-02-15T08:03:51;3.45;;;1.20;;
36373;SDS011;22399;51.346;12.372;2024-02-15T08:06:22;2.38;;;1.20;;
36373;SDS011;22399;51.346;12.372;2024-02-15T08:08:55;4.47;;;1.48;;
36373;SDS011;22399;51.346;12.372;2024-02-15T08:11:24;8.93;;;1.75;;
36373;SDS011;22399;51.346;12.372;2024-02-15T08:13:54;6.00;;;1.23;;
36373;SDS011;22399;51.346;12.372;2024-02-15T08:16:26;5.13;;;1.42;;
36373;SDS011;22399;51.346;12.372;2024-02-15T08:18:55;4.38;;;1.23;;
36373;SDS011;22399;51.346;12.372;2024-02-15T08:21:25;2.42;;;1.15;;
36373;SDS011;22399;51.346;12.372;2024-02-15T08:23:56;3.05;;;1.23;;
36373;SDS011;22399;51.346;12.372;2024-02-15T08:26:25;12.77;;;1.50;;
36373;SDS011;22399;51.346;12.372;2024-02-15T08:28:57;2.85;;;1.23;;
36373;SDS011;22399;51.346;12.372;2024-02-15T08:31:26;3.03;;;1.40;;
36373;SDS011;22399;51.346;12.372;2024-02-15T08:33:54;2.47;;;1.15;;
36373;SDS011;22399;51.346;12.372;2024-02-15T08:36:23;3.53;;;1.52;;
36373;SDS011;22399;51.346;12.372;2024-02-15T08:38:51;3.58;;;1.45;;
36373;SDS011;22399;51.346;12.372;2024-02-15T08:41:20;1.70;;;0.90;;
36373;SDS011;22399;51.346;12.372;2024-02-15T08:43:53;5.18;;;1.27;;
36373;SDS011;22399;51.346;12.372;2024-02-15T08:46:26;6.82;;;1.60;;
36373;SDS011;22399;51.346;12.372;2024-02-15T08:48:54;7.60;;;1.52;;
36373;SDS011;22399;51.346;12.372;2024-02-15T08:51:23;2.90;;;1.13;;
36373;SDS011;22399;51.346;12.372;2024-02-15T08:53:52;6.95;;;1.25;;
36373;SDS011;22399;51.346;12.372;2024-02-15T08:56:20;4.78;;;1.50;;
36373;SDS011;22399;51.346;12.372;2024-02-15T08:58:49;2.08;;;1.17;;
36373;SDS011;22399;51.346;12.372;2024-02-15T09:01:17;1.77;;;0.90;;
36373;SDS011;22399;51.346;12.372;2024-02-15T09:03:47;1.73;;;1.00;;
36373;SDS011;22399;51.346;12.372;2024-02-15T09:06:16;9.55;;;1.58;;
36373;SDS011;22399;51.346;12.372;2024-02-15T09:08:45;1.25;;;1.00;;
36373;SDS011;22399;51.346;12.372;2024-02-15T09:11:15;7.25;;;1.25;;
36373;SDS011;22399;51.346;12.372;2024-02-15T09:13:43;9.40;;;1.23;;
36373;SDS011;22399;51.346;12.372;2024-02-15T09:16:11;3.67;;;1.23;;
36373;SDS011;22399;51.346;12.372;2024-02-15T09:18:40;2.42;;;1.15;;
36373;SDS011;22399;51.346;12.372;2024-02-15T09:21:14;3.03;;;1.30;;
36373;SDS011;22399;51.346;12.372;2024-02-15T09:23:42;6.03;;;1.20;;
36373;SDS011;22399;51.346;12.372;2024-02-15T09:26:11;1.35;;;0.90;;
36373;SDS011;22399;51.346;12.372;2024-02-15T09:28:40;5.35;;;1.10;;
36373;SDS011;22399;51.346;12.372;2024-02-15T09:31:08;2.30;;;1.27;;
36373;SDS011;22399;51.346;12.372;2024-02-15T09:33:40;1.17;;;0.90;;
36373;SDS011;22399;51.346;12.372;2024-02-15T09:36:09;2.50;;;1.10;;
36373;SDS011;22399;51.346;12.372;2024-02-15T09:38:40;2.63;;;1.00;;
36373;SDS011;22399;51.346;12.372;2024-02-15T09:41:08;3.47;;;1.45;;
36373;SDS011;22399;51.346;12.372;2024-02-15T09:43:37;2.90;;;1.10;;
36373;SDS011;22399;51.346;12.372;2024-02-15T09:46:06;3.50;;;1.33;;
36373;SDS011;22399;51.346;12.372;2024-02-15T09:48:35;3.75;;;0.93;;
36373;SDS011;22399;51.346;12.372;2024-02-15T09:51:07;1.60;;;1.00;;
36373;SDS011;22399;51.346;12.372;2024-02-15T09:53:39;2.50;;;1.10;;
36373;SDS011;22399;51.346;12.372;2024-02-15T09:56:09;2.08;;;1.17;;
36373;SDS011;22399;51.346;12.372;2024-02-15T09:58:38;2.72;;;1.00;;
36373;SDS011;22399;51.346;12.372;2024-02-15T10:01:07;4.55;;;1.02;;
36373;SDS011;22399;51.346;12.372;2024-02-15T10:03:38;2.13;;;0.93;;
36373;SDS011;22399;51.346;12.372;2024-02-15T10:06:07;4.15;;;1.20;;
36373;SDS011;22399;51.346;12.372;2024-02-15T10:08:37;2.88;;;1.30;;
36373;SDS011;22399;51.346;12.372;2024-02-15T10:11:07;3.17;;;1.38;;
36373;SDS011;22399;51.346;12.372;2024-02-15T10:13:36;2.92;;;1.52;;
36373;SDS011;22399;51.346;12.372;2024-02-15T10:16:15;1.42;;;1.10;;
36373;SDS011;22399;51.346;12.372;2024-02-15T10:18:45;2.67;;;0.90;;
36373;SDS011;22399;51.346;12.372;2024-02-15T10:21:24;2.65;;;1.55;;
36373;SDS011;22399;51.346;12.372;2024-02-15T10:24:02;3.78;;;1.15;;
36373;SDS011;22399;51.346;12.372;2024-02-15T10:26:35;9.43;;;1.10;;
36373;SDS011;22399;51.346;12.372;2024-02-15T10:29:07;6.82;;;1.40;;
36373;SDS011;22399;51.346;12.372;2024-02-15T10:31:37;1.90;;;1.20;;
36373;SDS011;22399;51.346;12.372;2024-02-15T10:34:08;4.75;;;0.90;;
36373;SDS011;22399;51.346;12.372;2024-02-15T10:36:38;5.22;;;1.42;;
36373;SDS011;22399;51.346;12.372;2024-02-15T10:39:13;2.92;;;1.20;;
36373;SDS011;22399;51.346;12.372;2024-02-15T10:41:47;1.50;;;0.90;;
36373;SDS011;22399;51.346;12.372;2024-02-15T10:44:17;5.43;;;1.35;;
36373;SDS011;22399;51.346;12.372;2024-02-15T10:46:48;1.83;;;0.75;;
36373;SDS011;22399;51.346;12.372;2024-02-15T10:49:18;4.22;;;1.30;;
36373;SDS011;22399;51.346;12.372;2024-02-15T10:51:50;5.13;;;1.33;;
36373;SDS011;22399;51.346;12.372;2024-02-15T10:57:11;2.88;;;0.98;;
36373;SDS011;22399;51.346;12.372;2024-02-15T10:59:43;2.13;;;1.30;;
36373;SDS011;22399;51.346;12.372;2024-02-15T11:02:26;16.42;;;1.15;;
36373;SDS011;22399;51.346;12.372;2024-02-15T11:05:01;2.95;;;1.20;;
36373;SDS011;22399;51.346;12.372;2024-02-15T11:07:31;5.25;;;1.63;;
36373;SDS011;22399;51.346;12.372;2024-02-15T11:10:01;2.70;;;1.27;;
36373;SDS011;22399;51.346;12.372;2024-02-15T11:12:34;5.07;;;1.40;;
36373;SDS011;22399;51.346;12.372;2024-02-15T11:15:03;9.02;;;1.17;;
36373;SDS011;22399;51.346;12.372;2024-02-15T11:17:46;5.45;;;1.10;;
36373;SDS011;22399;51.346;12.372;2024-02-15T11:23:25;4.72;;;1.50;;
36373;SDS011;22399;51.346;12.372;2024-02-15T11:25:58;4.55;;;1.35;;
36373;SDS011;22399;51.346;12.372;2024-02-15T11:37:09;4.68;;;1.02;;
36373;SDS011;22399;51.346;12.372;2024-02-15T11:40:04;2.35;;;1.08;;
36373;SDS011;22399;51.346;12.372;2024-02-15T11:42:36;3.42;;;1.50;;
36373;SDS011;22399;51.346;12.372;2024-02-15T11:45:07;1.50;;;0.98;;
36373;SDS011;22399;51.346;12.372;2024-02-15T11:47:36;0.70;;;0.70;;
36373;SDS011;22399;51.346;12.372;2024-02-15T11:50:09;2.25;;;1.08;;
36373;SDS011;22399;51.346;12.372;2024-02-15T11:52:41;4.00;;;1.05;;
36373;SDS011;22399;51.346;12.372;2024-02-15T11:55:10;1.77;;;0.98;;
36373;SDS011;22399;51.346;12.372;2024-02-15T11:57:39;2.22;;;1.27;;
36373;SDS011;22399;51.346;12.372;2024-02-15T12:00:22;1.48;;;0.98;;
36373;SDS011;22399;51.346;12.372;2024-02-15T12:03:09;2.20;;;0.90;;
36373;SDS011;22399;51.346;12.372;2024-02-15T12:05:55;1.42;;;0.70;;
36373;SDS011;22399;51.346;12.372;2024-02-15T12:08:43;3.90;;;0.90;;
36373;SDS011;22399;51.346;12.372;2024-02-15T12:11:30;2.08;;;0.80;;
36373;SDS011;22399;51.346;12.372;2024-02-15T12:14:16;1.45;;;0.80;;
36373;SDS011;22399;51.346;12.372;2024-02-15T12:17:04;1.80;;;0.90;;
36373;SDS011;22399;51.346;12.372;2024-02-15T12:19:54;3.38;;;1.17;;
36373;SDS011;22399;51.346;12.372;2024-02-15T12:22:24;2.40;;;0.98;;
36373;SDS011;22399;51.346;12.372;2024-02-15T12:24:55;1.25;;;0.85;;
36373;SDS011;22399;51.346;12.372;2024-02-15T12:27:24;2.15;;;0.80;;
36373;SDS011;22399;51.346;12.372;2024-02-15T12:29:54;1.77;;;0.70;;
36373;SDS011;22399;51.346;12.372;2024-02-15T12:32:26;2.63;;;1.13;;
36373;SDS011;22399;51.346;12.372;2024-02-15T12:35:09;3.75;;;1.10;;
36373;SDS011;22399;51.346;12.372;2024-02-15T12:37:42;4.43;;;0.90;;
36373;SDS011;22399;51.346;12.372;2024-02-15T12:40:11;1.90;;;0.90;;
36373;SDS011;22399;51.346;12.372;2024-02-15T12:42:42;1.23;;;0.60;;
36373;SDS011;22399;51.346;12.372;2024-02-15T12:45:15;2.72;;;0.85;;
36373;SDS011;22399;51.346;12.372;2024-02-15T12:47:51;1.77;;;0.70;;
36373;SDS011;22399;51.346;12.372;2024-02-15T12:50:21;3.10;;;1.20;;
36373;SDS011;22399;51.346;12.372;2024-02-15T12:52:51;3.08;;;0.88;;
36373;SDS011;22399;51.346;12.372;2024-02-15T12:55:20;1.42;;;0.85;;
36373;SDS011;22399;51.346;12.372;2024-02-15T12:57:52;2.53;;;0.80;;
36373;SDS011;22399;51.346;12.372;2024-02-15T13:00:22;2.88;;;0.70;;
36373;SDS011;22399;51.346;12.372;2024-02-15T13:02:57;0.93;;;0.75;;
36373;SDS011;22399;51.346;12.372;2024-02-15T13:05:26;2.45;;;0.80;;
36373;SDS011;22399;51.346;12.372;2024-02-15T13:07:55;1.98;;;0.40;;
36373;SDS011;22399;51.346;12.372;2024-02-15T13:10:24;1.77;;;0.60;;
36373;SDS011;22399;51.346;12.372;2024-02-15T13:12:53;3.08;;;0.68;;
36373;SDS011;22399;51.346;12.372;2024-02-15T13:15:22;1.13;;;0.50;;
36373;SDS011;22399;51.346;12.372;2024-02-15T13:17:54;1.90;;;0.70;;
36373;SDS011;22399;51.346;12.372;2024-02-15T13:20:25;0.63;;;0.60;;
36373;SDS011;22399;51.346;12.372;2024-02-15T13:22:59;2.95;;;0.60;;
36373;SDS011;22399;51.346;12.372;2024-02-15T13:25:35;1.75;;;0.40;;
36373;SDS011;22399;51.346;12.372;2024-02-15T13:28:07;1.50;;;0.63;;
36373;SDS011;22399;51.346;12.372;2024-02-15T13:30:37;6.20;;;0.60;;
36373;SDS011;22399;51.346;12.372;2024-02-15T13:33:05;0.50;;;0.50;;
36373;SDS011;22399;51.346;12.372;2024-02-15T13:35:35;2.72;;;0.75;;
36373;SDS011;22399;51.346;12.372;2024-02-15T13:38:04;1.35;;;0.47;;
36373;SDS011;22399;51.346;12.372;2024-02-15T13:40:36;1.73;;;0.57;;
36373;SDS011;22399;51.346;12.372;2024-02-15T13:43:04;0.40;;;0.40;;
36373;SDS011;22399;51.346;12.372;2024-02-15T13:45:34;3.92;;;0.70;;
36373;SDS011;22399;51.346;12.372;2024-02-15T13:48:07;0.40;;;0.40;;
36373;SDS011;22399;51.346;12.372;2024-02-15T13:50:38;0.30;;;0.30;;
36373;SDS011;22399;51.346;12.372;2024-02-15T13:53:07;0.80;;;0.30;;
36373;SDS011;22399;51.346;12.372;2024-02-15T13:55:36;1.50;;;0.60;;
36373;SDS011;22399;51.346;12.372;2024-02-15T13:58:06;1.27;;;0.40;;
36373;SDS011;22399;51.346;12.372;2024-02-15T14:00:39;0.50;;;0.40;;
36373;SDS011;22399;51.346;12.372;2024-02-15T14:03:10;1.13;;;0.45;;
36373;SDS011;22399;51.346;12.372;2024-02-15T14:05:43;2.65;;;0.50;;
36373;SDS011;22399;51.346;12.372;2024-02-15T14:08:14;1.77;;;0.60;;
36373;SDS011;22399;51.346;12.372;2024-02-15T14:10:43;3.80;;;1.00;;
36373;SDS011;22399;51.346;12.372;2024-02-15T14:13:12;1.55;;;0.47;;
36373;SDS011;22399;51.346;12.372;2024-02-15T14:15:41;1.67;;;0.40;;
36373;SDS011;22399;51.346;12.372;2024-02-15T14:18:10;1.73;;;0.50;;
36373;SDS011;22399;51.346;12.372;2024-02-15T14:20:43;3.45;;;0.93;;
36373;SDS011;22399;51.346;12.372;2024-02-15T14:23:13;0.85;;;0.40;;
36373;SDS011;22399;51.346;12.372;2024-02-15T14:25:43;1.55;;;0.40;;
36373;SDS011;22399;51.346;12.372;2024-02-15T14:28:12;6.55;;;0.47;;
36373;SDS011;22399;51.346;12.372;2024-02-15T14:30:42;0.88;;;0.38;;
36373;SDS011;22399;51.346;12.372;2024-02-15T14:33:28;0.50;;;0.40;;
36373;SDS011;22399;51.346;12.372;2024-02-15T14:36:02;0.80;;;0.60;;
36373;SDS011;22399;51.346;12.372;2024-02-15T14:38:31;1.95;;;0.55;;
36373;SDS011;22399;51.346;12.372;2024-02-15T14:41:01;0.75;;;0.60;;
36373;SDS011;22399;51.346;12.372;2024-02-15T14:43:33;1.20;;;0.40;;
36373;SDS011;22399;51.346;12.372;2024-02-15T14:46:02;1.25;;;0.60;;
36373;SDS011;22399;51.346;12.372;2024-02-15T14:48:32;2.17;;;0.65;;
36373;SDS011;22399;51.346;12.372;2024-02-15T14:51:02;0.30;;;0.30;;
36373;SDS011;22399;51.346;12.372;2024-02-15T14:53:31;0.85;;;0.60;;
36373;SDS011;22399;51.346;12.372;2024-02-15T14:55:59;2.08;;;0.40;;
36373;SDS011;22399;51.346;12.372;2024-02-15T14:58:31;0.63;;;0.60;;
36373;SDS011;22399;51.346;12.372;2024-02-15T15:00:59;1.23;;;0.50;;
36373;SDS011;22399;51.346;12.372;2024-02-15T15:03:35;1.40;;;0.60;;
36373;SDS011;22399;51.346;12.372;2024-02-15T15:06:08;1.38;;;0.50;;
36373;SDS011;22399;51.346;12.372;2024-02-15T15:08:54;5.85;;;1.00;;
36373;SDS011;22399;51.346;12.372;2024-02-15T15:11:42;0.32;;;0.20;;